Weather observations for the past three days for
Tulsa - Jones Jr. Airport
Metric (Imperial)
Date Time (cdt) Wind (kph) Vis. (km) Weather Sky Cond. Temperature (ºC) Relative Humidity Wind Chill (°C) Heat Index (°C) Pressure Precipitation (cm)
Air Dwpt 6 hour altimeter (cm) sea level (mb) 1 hr 3 hr 6 hr
Max. Min.
06 19:53 N 9 16.09 Mostly Cloudy BKN060 16.1 4.4 46% 76.28 1017.7
06 18:53 NE 19 G 28 16.09 A Few Clouds FEW060 17.8 5 19.4 16.7 43% 76.23 1017.2
06 17:53 NE 13 G 31 16.09 A Few Clouds FEW060 18.3 5.6 43% 76.2 1016.8
06 16:53 NE 26 G 35 16.09 Mostly Cloudy BKN055 18.9 5.6 42% 76.17 1016.2
06 15:53 NE 15 G 35 16.09 Mostly Cloudy BKN050 17.8 6.7 48% 76.2 1016.6
06 14:53 NE 13 G 33 16.09 Mostly Cloudy BKN048 18.3 6.7 47% 76.25 1017.3
06 13:53 Vrbl 9 G 31 16.09 Mostly Cloudy BKN048 17.8 6.7 48% 76.28 1017.8
06 12:53 NE 26 G 35 16.09 A Few Clouds FEW045 17.2 6.7 17.2 9.4 50% 76.33 1018.2
06 11:53 NE 19 G 30 16.09 Fair CLR 15.6 5.6 52% 76.43 1019.6
06 10:53 NE 17 16.09 Partly Cloudy SCT055 13.3 5 57% 76.38 1018.6
06 09:53 NE 28 16.09 Fair CLR 12.8 4.4 57% 76.3 1017.4
06 08:53 NE 28 G 46 16.09 Fair CLR 11.1 5 66% 76.3 1017.6
06 07:53 NE 17 G 31 16.09 Fair CLR 10 6.1 77% 8 76.28 1017.3
06 06:53 N 17 16.09 Mostly Cloudy BKN050 9.4 5.6 11.1 9.4 77% 7 76.23 1016.5
06 05:53 N 20 G 30 16.09 Overcast OVC048 10 5.6 74% 8 76.2 1016.1
06 04:53 N 13 16.09 Overcast OVC049 10 5.6 74% 8 76.15 1015.6
06 03:53 N 19 16.09 Overcast OVC044 10 5.6 74% 8 76.02 1013.9
06 02:53 NE 17 G 35 16.09 Overcast OVC042 10.6 4.4 66% 76 1013.5
06 01:53 NE 20 G 35 16.09 Overcast OVC039 10.6 4.4 66% 75.97 1013.2
06 00:53 NE 22 G 39 16.09 Overcast OVC035 11.1 3.9 11.7 10.6 61% 76 1013.4
05 23:53 N 20 G 37 16.09 Overcast FEW034 OVC047 10.6 4.4 66% 75.97 1013.1
05 22:53 N 17 G 35 16.09 Overcast OVC031 11.1 5.6 69% 75.97 1013.8
05 21:53 N 19 G 35 16.09 Overcast OVC025 11.1 6.1 72% 75.95 1013.1
05 20:53 N 17 G 35 16.09 Overcast OVC024 11.1 6.1 72% 75.84 1011.8
05 19:53 N 24 G 39 16.09 Overcast OVC024 11.1 6.1 72% 75.77 1010.7
05 18:53 N 26 G 54 16.09 Overcast OVC028 11.7 6.1 13.9 11.7 69% 75.74 1010.4
05 17:53 NE 33 G 50 16.09 Overcast and Breezy OVC028 12.2 6.1 67% 75.69 1009.7
05 16:53 N 26 G 39 16.09 Overcast OVC027 12.8 7.2 69% 75.64 1009.0
05 15:53 NE 31 G 50 16.09 Overcast OVC024 12.8 7.8 72% 75.59 1008.3
05 14:53 N 20 G 46 16.09 Overcast OVC022 13.9 8.9 72% 75.59 1008.3
05 13:53 N 19 G 48 16.09 Overcast OVC018 13.3 9.4 77% 75.54 1007.7
05 12:53 N 22 G 56 16.09 Overcast OVC015 13.9 10.6 21.7 13.9 81% 75.51 1007.2
05 11:53 NE 30 G 52 16.09 Overcast OVC013 14.4 11.1 81% 75.41 1005.9
05 10:53 N 20 G 41 16.09 Overcast BKN014 OVC019 15.6 12.8 84% 75.36 1005.1
05 09:53 NE 13 16.09 Overcast BKN023 BKN030 OVC044 21.1 17.2 79% 75.26 1003.9
05 08:53 SE 17 G 30 16.09 A Few Clouds FEW065 20.6 16.7 78% 75.21 1003.2
05 07:53 E 19 16.09 Overcast SCT046 OVC060 20 16.1 78% 75.23 1003.6
05 06:53 NE 13 16.09 Overcast BKN027 OVC036 19.4 16.1 21.7 19.4 81% 75.23 1003.4
05 05:53 NE 17 16.09 Overcast OVC029 19.4 15.6 79% 75.18 1002.5
05 04:53 E 15 16.09 Overcast OVC032 19.4 16.1 81% 75.11 1001.7
05 03:53 E 15 16.09 Overcast OVC035 20.6 15.6 73% 75.13 1001.8
05 02:53 E 13 16.09 Overcast OVC032 21.1 15.6 71% 75.16 1002.2
05 01:53 NE 7 16.09 Overcast OVC034 21.1 16.1 73% 75.21 1002.9
05 00:53 S 13 16.09 Fair CLR 21.7 15.6 25.6 21.7 68% 75.16 1002.1
04 23:53 S 15 16.09 Fair CLR 22.2 15 64% 75.16 1002.4
04 22:53 S 20 G 31 16.09 Fair CLR 22.2 14.4 61% 75.21 1002.9
04 21:53 S 17 16.09 Fair CLR 22.8 13.9 57% 75.26 1003.5
04 20:53 S 17 16.09 Fair CLR 23.3 13.9 56% 75.26 1003.7
04 19:53 S 19 16.09 Fair CLR 24.4 14.4 54% 26 75.23 1003.4
04 18:53 S 22 G 33 16.09 Mostly Cloudy BKN050 25.6 15 27.8 25.6 52% 26 75.26 1003.9
04 17:53 S 22 G 43 16.09 A Few Clouds FEW050 26.7 15 49% 27 75.29 1003.9
04 16:53 S 22 G 39 16.09 Fair CLR 27.2 15 47% 27 75.26 1003.7
04 15:53 S 30 G 48 16.09 Fair CLR 27.2 15 47% 27 75.31 1004.2
04 14:53 S 28 G 52 16.09 Fair CLR 27.8 15 46% 28 75.36 1005.1
04 13:53 S 31 G 54 16.09 Fair CLR 27.8 15 46% 28 75.41 1005.6
04 12:53 S 30 G 65 16.09 Fair CLR 27.2 13.9 27.2 16.7 44% 27 75.46 1006.5
04 11:53 S 30 G 50 16.09 Fair CLR 26.7 13.3 44% 27 75.51 1007.1
04 10:53 S 30 G 46 16.09 Fair CLR 25 12.2 45% 26 75.54 1007.4
04 09:53 SW 26 G 41 16.09 Fair CLR 22.8 11.7 50% 75.59 1008.2
04 08:53 S 20 G 35 16.09 Fair CLR 20 10.6 55% 75.64 1008.8
04 07:53 S 13 16.09 Fair CLR 17.8 10 60% 75.67 1009.2
04 06:53 S 11 16.09 Fair CLR 16.7 9.4 20 16.1 62% 75.67 1009.2
04 05:53 S 7 16.09 Fair CLR 17.2 8.9 58% 75.67 1009.2
04 04:53 S 17 16.09 Fair CLR 18.3 8.9 54% 75.69 1009.6
04 03:53 S 15 G 33 16.09 Fair CLR 18.9 8.3 50% 75.72 1009.7
04 02:53 S 19 16.09 Fair CLR 19.4 8.3 49% 75.74 1010.1
04 01:53 S 19 G 39 16.09 Fair CLR 20 8.3 47% 75.79 1010.7
04 00:53 S 15 16.09 Fair CLR 19.4 8.3 27.2 19.4 49% 75.84 1011.3
03 23:53 S 15 16.09 Fair CLR 20.6 8.3 45% 75.87 1011.9
03 22:53 S 11 16.09 Fair CLR 20.6 8.3 45% 75.9 1012.2
03 21:53 S 13 16.09 Fair CLR 22.2 8.3 41% 75.9 1012.1
03 20:53 S 11 16.09 Fair CLR 23.9 8.3 37% 25 75.84 1011.6
Date Time (cdt) Wind (kph) Vis. (km) Weather Sky Cond. Air Dwpt Max. Min. Relative Humidity Wind Chill (°C) Heat Index (°C) altimeter (cm) sea level (mb) 1 hr 3 hr 6 hr
6 hour
Temperature (ºC) Pressure Precipitation (cm)